Aranspass, Texas
Current Conditions -  °F | °C
As of 6:35 PM on Monday 24 Nov 2014 (Local Time) from KTFP Reporting Station
Broken Clouds Broken Clouds  
Wind Chill: 16°   Ceiling: 10000
Heat Index: 16°   Visibility: 10mi
Dew Point:   Wind: 5mph
Humidity: 50%   Direction: 40°NE
Pressure: 30.07"   Gusts: NA
Location:  27.9399°N, 97.1805°W
Report Text: KTFP 250035Z AUTO 04004KT 10SM BKN100 17/06 A3007 RMK AO2 T01650060
Loading
Personal Weather Stations






























Interactive Weather Map New forecast layout! Learn more

10-Day Weather Forecast

Advertisements
Track Severe Weather on mobile